createdAt,value
2018-08-12T00:02:07.455Z,75.70
2018-08-12T00:04:35.770Z,76.00
2018-08-12T00:07:04.383Z,76.30
2018-08-12T00:09:32.757Z,76.40
2018-08-12T00:12:01.601Z,76.50
2018-08-12T00:14:29.791Z,76.70
2018-08-12T00:16:57.964Z,76.90
2018-08-12T00:19:26.141Z,77.20
2018-08-12T00:21:54.385Z,77.40
2018-08-12T00:24:23.843Z,77.50
2018-08-12T00:26:51.999Z,77.80
2018-08-12T00:29:20.752Z,77.50
2018-08-12T00:31:48.915Z,77.80
2018-08-12T00:34:17.048Z,78.80
2018-08-12T00:36:45.166Z,78.10
2018-08-12T00:39:13.816Z,78.20
2018-08-12T00:41:41.970Z,78.50
2018-08-12T00:44:11.587Z,78.70
2018-08-12T00:46:39.792Z,78.90
2018-08-12T00:49:08.170Z,79.20
2018-08-12T00:51:36.462Z,79.40
2018-08-12T00:54:04.726Z,79.80
2018-08-12T00:56:32.872Z,80.10
2018-08-12T00:59:01.054Z,80.30
2018-08-12T01:01:29.304Z,80.50
2018-08-12T01:03:57.535Z,80.70
2018-08-12T01:06:25.766Z,80.90
2018-08-12T01:08:53.932Z,81.10
2018-08-12T01:11:22.070Z,81.20
2018-08-12T01:13:50.429Z,81.40
2018-08-12T01:16:18.575Z,81.50
2018-08-12T01:18:48.080Z,81.80
2018-08-12T01:21:17.250Z,81.80
2018-08-12T01:23:45.498Z,82.00
2018-08-12T01:26:13.706Z,82.30
2018-08-12T01:28:41.859Z,82.40
2018-08-12T01:31:10.053Z,82.40
2018-08-12T01:33:39.533Z,82.50
2018-08-12T01:36:07.752Z,82.70
2018-08-12T01:38:36.033Z,82.80
2018-08-12T01:41:04.184Z,83.00
2018-08-12T01:43:33.400Z,83.20
2018-08-12T01:46:01.562Z,83.30
2018-08-12T01:48:30.077Z,83.50
2018-08-12T01:50:58.202Z,83.80
2018-08-12T01:53:26.437Z,83.90
2018-08-12T01:55:54.638Z,84.30
2018-08-12T01:58:22.868Z,84.40
2018-08-12T02:00:51.186Z,85.30
2018-08-12T02:03:19.361Z,84.80
2018-08-12T02:05:47.585Z,85.00
2018-08-12T02:08:17.247Z,85.10
2018-08-12T02:10:45.467Z,85.20
2018-08-12T02:13:13.581Z,85.30
2018-08-12T02:15:41.696Z,85.70
2018-08-12T02:18:11.052Z,85.90
2018-08-12T02:20:39.464Z,85.90
2018-08-12T02:23:09.322Z,86.10
2018-08-12T02:25:37.471Z,86.40
2018-08-12T02:28:06.290Z,86.50
2018-08-12T02:30:34.453Z,86.70
2018-08-12T02:33:03.229Z,87.00
2018-08-12T02:35:31.371Z,87.20
2018-08-12T02:38:01.081Z,87.30
2018-08-12T02:40:29.527Z,87.40
2018-08-12T02:42:57.657Z,87.30
2018-08-12T02:45:25.788Z,87.40
2018-08-12T02:47:53.959Z,87.50
2018-08-12T02:50:22.206Z,87.50
2018-08-12T02:52:50.343Z,87.50
2018-08-12T02:55:18.452Z,88.00
2018-08-12T02:57:46.602Z,88.20
2018-08-12T03:00:15.021Z,88.50
2018-08-12T03:02:43.138Z,88.70
2018-08-12T03:05:11.348Z,88.90
2018-08-12T03:07:39.486Z,89.10
2018-08-12T03:10:08.173Z,90.00
2018-08-12T03:12:36.647Z,89.70
2018-08-12T03:15:06.759Z,89.80
2018-08-12T03:17:35.870Z,90.10
2018-08-12T03:20:04.813Z,90.10
2018-08-12T03:22:33.016Z,90.20
2018-08-12T03:25:01.241Z,90.30
2018-08-12T03:27:30.681Z,90.30
2018-08-12T03:29:58.845Z,90.20
2018-08-12T03:32:26.967Z,90.20
2018-08-12T03:34:55.634Z,90.10
2018-08-12T03:37:23.808Z,90.10
2018-08-12T03:39:52.040Z,89.80
2018-08-12T03:42:20.307Z,89.80
2018-08-12T03:44:48.741Z,89.50
2018-08-12T03:47:16.954Z,89.20
2018-08-12T03:49:45.666Z,88.90
2018-08-12T03:52:13.877Z,88.60
2018-08-12T03:54:42.103Z,88.20
2018-08-12T03:57:10.429Z,88.10
2018-08-12T03:59:38.651Z,87.90
2018-08-12T04:02:07.029Z,87.50
2018-08-12T04:04:35.267Z,87.60
2018-08-12T04:07:03.421Z,87.80
2018-08-12T04:09:32.697Z,87.60
2018-08-12T04:12:00.867Z,87.40
2018-08-12T04:14:29.075Z,87.50
2018-08-12T04:16:58.726Z,88.20
2018-08-12T04:19:27.600Z,87.40
2018-08-12T04:21:55.917Z,87.50
2018-08-12T04:24:24.361Z,87.50
2018-08-12T04:26:52.507Z,87.50
2018-08-12T04:29:20.632Z,87.60
2018-08-12T04:31:48.894Z,87.80
2018-08-12T04:34:17.024Z,87.70
2018-08-12T04:36:45.382Z,87.70
2018-08-12T04:39:14.254Z,87.90
2018-08-12T04:41:43.712Z,87.60
2018-08-12T04:44:12.195Z,87.50
2018-08-12T04:46:40.354Z,87.50
2018-08-12T04:49:09.589Z,87.30
2018-08-12T04:51:37.700Z,87.20
2018-08-12T04:54:06.288Z,87.10
2018-08-12T04:56:34.488Z,87.00
2018-08-12T04:59:02.662Z,86.70
2018-08-12T05:01:30.871Z,86.50
2018-08-12T05:03:59.042Z,86.40
2018-08-12T05:06:27.168Z,86.00
2018-08-12T05:08:55.366Z,85.90
2018-08-12T05:11:23.582Z,85.50
2018-08-12T05:13:51.844Z,85.10
2018-08-12T05:16:20.388Z,83.80
2018-08-12T05:18:48.531Z,81.50
2018-08-12T05:21:16.734Z,78.50
2018-08-12T05:23:44.915Z,75.50
2018-08-12T05:26:13.436Z,72.70
2018-08-12T05:28:41.580Z,70.90
2018-08-12T05:31:10.019Z,69.20
2018-08-12T05:33:38.444Z,67.60
2018-08-12T05:36:06.635Z,66.50
2018-08-12T05:38:34.804Z,65.00
2018-08-12T05:41:03.275Z,64.80
2018-08-12T05:43:31.953Z,65.00
2018-08-12T05:46:00.167Z,64.00
2018-08-12T05:48:28.325Z,63.20
2018-08-12T05:50:56.589Z,62.20
2018-08-12T05:53:24.858Z,62.10
2018-08-12T05:55:53.130Z,61.90
2018-08-12T05:58:21.393Z,61.60
2018-08-12T06:00:49.563Z,61.30
2018-08-12T06:03:18.912Z,61.40
2018-08-12T06:05:47.064Z,61.10
2018-08-12T06:08:15.434Z,60.70
2018-08-12T06:10:43.604Z,60.30
2018-08-12T06:13:11.774Z,60.20
2018-08-12T06:15:39.926Z,59.80
2018-08-12T06:18:08.117Z,59.10
2018-08-12T06:20:36.327Z,58.80
2018-08-12T06:23:04.619Z,58.20
2018-08-12T06:25:32.888Z,57.80
2018-08-12T06:28:01.235Z,57.30
2018-08-12T06:30:29.357Z,56.90
2018-08-12T06:32:57.739Z,56.50
2018-08-12T06:35:26.024Z,55.70
2018-08-12T06:37:54.221Z,55.50
2018-08-12T06:40:22.495Z,55.20
2018-08-12T06:42:50.635Z,55.30
2018-08-12T06:45:19.914Z,55.00
2018-08-12T06:47:48.657Z,54.20
2018-08-12T06:50:16.828Z,53.80
2018-08-12T06:52:45.107Z,53.60
2018-08-12T06:55:13.999Z,53.30
2018-08-12T06:57:44.239Z,53.40
2018-08-12T07:00:15.498Z,53.40
2018-08-12T07:02:43.632Z,53.20
2018-08-12T07:05:12.240Z,53.50
2018-08-12T07:07:40.461Z,53.80
2018-08-12T07:10:11.041Z,53.90
2018-08-12T07:12:39.338Z,53.70
2018-08-12T07:15:10.503Z,53.20
2018-08-12T07:17:38.837Z,53.30
2018-08-12T07:20:07.872Z,52.70
2018-08-12T07:22:36.436Z,53.40
2018-08-12T07:25:05.183Z,53.20
2018-08-12T07:27:33.319Z,53.10
2018-08-12T07:30:01.524Z,52.80
2018-08-12T07:32:29.698Z,52.90
2018-08-12T07:34:57.857Z,52.70
2018-08-12T07:37:25.955Z,53.40
2018-08-12T07:39:54.068Z,53.10
2018-08-12T07:42:24.921Z,52.70
2018-08-12T07:44:53.030Z,52.20
2018-08-12T07:47:21.148Z,51.70
2018-08-12T07:49:49.245Z,51.70
2018-08-12T07:52:19.136Z,51.60
2018-08-12T07:54:47.634Z,51.70
2018-08-12T07:57:15.767Z,51.40
2018-08-12T07:59:43.900Z,51.60
2018-08-12T08:02:12.146Z,50.60
2018-08-12T08:04:40.337Z,50.60
2018-08-12T08:07:08.708Z,51.00
2018-08-12T08:09:37.327Z,51.20
2018-08-12T08:12:05.484Z,51.30
2018-08-12T08:14:33.640Z,51.30
2018-08-12T08:17:01.750Z,51.40
2018-08-12T08:19:29.915Z,51.40
2018-08-12T08:21:59.497Z,51.80
2018-08-12T08:24:27.685Z,51.30
2018-08-12T08:26:56.015Z,50.60
2018-08-12T08:29:24.191Z,50.70
2018-08-12T08:31:52.554Z,51.30
2018-08-12T08:34:20.538Z,51.70
2018-08-12T08:36:48.671Z,51.70
2018-08-12T08:39:17.234Z,50.50
2018-08-12T08:41:45.371Z,49.80
2018-08-12T08:44:13.534Z,49.50
2018-08-12T08:46:41.635Z,49.00
2018-08-12T08:49:09.839Z,48.80
2018-08-12T08:51:38.068Z,48.90
2018-08-12T08:54:07.623Z,48.70
2018-08-12T08:56:35.962Z,49.20
2018-08-12T08:59:04.769Z,48.50
2018-08-12T09:01:32.928Z,47.90
2018-08-12T09:04:01.354Z,48.10
2018-08-12T09:06:29.620Z,47.30
2018-08-12T09:08:57.929Z,47.30
2018-08-12T09:11:26.134Z,47.00
2018-08-12T09:13:54.275Z,46.60
2018-08-12T09:16:22.430Z,46.30
2018-08-12T09:18:50.680Z,45.40
2018-08-12T09:21:18.884Z,42.80
2018-08-12T09:23:47.126Z,42.70
2018-08-12T09:26:15.338Z,43.20
2018-08-12T09:28:43.508Z,43.30
2018-08-12T09:31:11.730Z,43.00
2018-08-12T09:33:39.915Z,42.50
2018-08-12T09:36:08.120Z,41.10
2018-08-12T09:38:36.292Z,41.20
2018-08-12T09:41:04.501Z,40.50
2018-08-12T09:43:32.686Z,40.50
2018-08-12T09:46:00.956Z,41.20
2018-08-12T09:48:29.450Z,41.70
2018-08-12T09:50:57.582Z,41.30
2018-08-12T09:53:25.742Z,40.80
2018-08-12T09:55:53.963Z,40.80
2018-08-12T09:58:22.145Z,40.80
2018-08-12T10:00:50.312Z,40.60
2018-08-12T10:03:18.482Z,40.30
2018-08-12T10:05:46.642Z,40.80
2018-08-12T10:08:14.792Z,40.70
2018-08-12T10:10:42.982Z,40.60
2018-08-12T10:13:17.864Z,40.30
2018-08-12T10:15:46.219Z,40.20
2018-08-12T10:18:14.516Z,40.40
2018-08-12T10:20:42.750Z,40.00
2018-08-12T10:23:11.096Z,39.30
2018-08-12T10:25:40.178Z,40.00
2018-08-12T10:28:08.378Z,39.90
2018-08-12T10:30:36.593Z,40.30
2018-08-12T10:33:04.817Z,40.20
2018-08-12T10:35:33.073Z,39.80
2018-08-12T10:38:01.412Z,39.30
2018-08-12T10:40:29.570Z,38.30
2018-08-12T10:42:57.710Z,38.30
2018-08-12T10:45:25.899Z,38.30
2018-08-12T10:47:54.150Z,37.40
2018-08-12T10:50:22.552Z,37.50
2018-08-12T10:52:50.932Z,37.60
2018-08-12T10:55:20.808Z,37.40
2018-08-12T10:57:48.959Z,37.60
2018-08-12T11:00:20.110Z,37.20
2018-08-12T11:02:48.677Z,37.70
2018-08-12T11:05:17.390Z,37.40
2018-08-12T11:07:47.081Z,36.70
2018-08-12T11:10:15.319Z,36.80
2018-08-12T11:12:44.303Z,36.60
2018-08-12T11:15:12.361Z,36.50
2018-08-12T11:17:41.144Z,36.10
2018-08-12T11:20:10.023Z,36.50
2018-08-12T11:22:38.188Z,36.60
2018-08-12T11:25:07.746Z,35.80
2018-08-12T11:27:36.113Z,35.00
2018-08-12T11:30:07.707Z,34.80
2018-08-12T11:32:36.292Z,35.00
2018-08-12T11:35:04.686Z,35.20
2018-08-12T11:37:32.886Z,34.70
2018-08-12T11:40:01.085Z,34.50
2018-08-12T11:42:29.281Z,34.40
2018-08-12T11:44:57.484Z,34.70
2018-08-12T11:47:25.817Z,34.60
2018-08-12T11:49:54.239Z,34.40
2018-08-12T11:52:22.450Z,34.40
2018-08-12T11:54:50.723Z,34.30
2018-08-12T11:57:18.944Z,34.50
2018-08-12T11:59:47.360Z,34.60
2018-08-12T12:02:15.648Z,34.80
2018-08-12T12:04:43.823Z,34.60
2018-08-12T12:07:12.074Z,34.30
2018-08-12T12:09:40.296Z,34.60
2018-08-12T12:12:08.510Z,35.00
2018-08-12T12:14:36.678Z,34.60
2018-08-12T12:17:04.905Z,34.30
2018-08-12T12:19:33.082Z,34.40
2018-08-12T12:22:01.305Z,33.70
2018-08-12T12:24:29.938Z,33.80
2018-08-12T12:26:58.166Z,34.10
2018-08-12T12:29:26.334Z,33.70
2018-08-12T12:31:54.532Z,33.50
2018-08-12T12:34:22.682Z,34.30
2018-08-12T12:36:50.934Z,33.70
2018-08-12T12:39:19.157Z,34.20
2018-08-12T12:41:47.432Z,33.50
2018-08-12T12:44:15.623Z,33.50
2018-08-12T12:46:43.871Z,33.50
2018-08-12T12:49:13.943Z,33.20
2018-08-12T12:51:42.330Z,32.60
2018-08-12T12:54:10.526Z,33.50
2018-08-12T12:56:38.849Z,33.20
2018-08-12T12:59:07.053Z,33.70
2018-08-12T13:01:35.378Z,33.30
2018-08-12T13:04:03.579Z,33.30
2018-08-12T13:06:32.133Z,32.60
2018-08-12T13:09:00.373Z,32.80
2018-08-12T13:11:28.645Z,32.40
2018-08-12T13:13:56.834Z,32.40
2018-08-12T13:16:24.969Z,32.60
2018-08-12T13:18:53.157Z,32.00
2018-08-12T13:21:21.457Z,32.00
2018-08-12T13:23:49.611Z,31.60
2018-08-12T13:26:17.818Z,32.00
2018-08-12T13:28:45.959Z,31.80
2018-08-12T13:31:14.153Z,31.90
2018-08-12T13:33:42.315Z,31.50
2018-08-12T13:36:10.483Z,32.00
2018-08-12T13:38:38.805Z,31.80
2018-08-12T13:41:07.095Z,31.90
2018-08-12T13:43:35.261Z,31.70
2018-08-12T13:46:03.457Z,31.10
2018-08-12T13:48:31.912Z,31.60
2018-08-12T13:51:00.111Z,30.70
2018-08-12T13:53:28.253Z,31.00
2018-08-12T13:55:56.398Z,31.30
2018-08-12T13:58:25.259Z,30.90
2018-08-12T14:00:53.422Z,31.50
2018-08-12T14:03:21.545Z,31.20
2018-08-12T14:05:49.690Z,30.90
2018-08-12T14:08:17.915Z,31.20
2018-08-12T14:10:46.165Z,31.70
2018-08-12T14:13:14.366Z,31.20
2018-08-12T14:15:43.307Z,30.70
2018-08-12T14:18:11.450Z,30.90
2018-08-12T14:20:40.168Z,30.80
2018-08-12T14:23:08.301Z,31.40
2018-08-12T14:25:36.524Z,31.70
2018-08-12T14:28:05.038Z,30.70
2018-08-12T14:30:33.268Z,30.70
2018-08-12T14:33:08.184Z,30.00
2018-08-12T14:35:36.411Z,30.00
2018-08-12T14:38:04.636Z,30.00
2018-08-12T14:40:32.812Z,29.80
2018-08-12T14:43:01.028Z,30.10
2018-08-12T14:45:29.177Z,29.90
2018-08-12T14:47:57.569Z,29.80
2018-08-12T14:50:25.789Z,29.90
2018-08-12T14:52:54.063Z,29.90
2018-08-12T14:55:22.264Z,29.80
2018-08-12T14:57:51.657Z,29.80
2018-08-12T15:00:20.800Z,29.80
2018-08-12T15:02:50.066Z,30.20
2018-08-12T15:05:18.942Z,30.10
2018-08-12T15:07:47.087Z,29.70
2018-08-12T15:10:15.322Z,29.60
2018-08-12T15:12:43.990Z,30.00
2018-08-12T15:15:13.354Z,29.80
2018-08-12T15:17:42.502Z,29.90
2018-08-12T15:20:11.114Z,30.20
2018-08-12T15:22:39.515Z,30.10
2018-08-12T15:25:09.685Z,30.10
2018-08-12T15:27:38.366Z,30.40
2018-08-12T15:30:07.880Z,30.40
2018-08-12T15:32:36.029Z,30.00
2018-08-12T15:35:05.143Z,30.40
2018-08-12T15:37:33.378Z,30.20
2018-08-12T15:40:01.676Z,30.30
2018-08-12T15:42:29.887Z,30.00
2018-08-12T15:44:59.068Z,29.60
2018-08-12T15:47:28.268Z,29.90
2018-08-12T15:49:57.098Z,29.80
2018-08-12T15:52:25.253Z,29.80
2018-08-12T15:54:53.377Z,29.50
2018-08-12T15:57:22.512Z,28.90
2018-08-12T15:59:50.732Z,28.90
2018-08-12T16:02:18.900Z,29.00
2018-08-12T16:04:47.198Z,29.30
2018-08-12T16:07:15.356Z,29.10
2018-08-12T16:09:43.506Z,29.40
2018-08-12T16:12:11.680Z,29.50
2018-08-12T16:14:40.551Z,29.30
2018-08-12T16:17:08.708Z,29.00
2018-08-12T16:19:36.851Z,28.70
2018-08-12T16:22:05.046Z,28.40
2018-08-12T16:24:33.474Z,28.60
2018-08-12T16:27:01.664Z,28.70
2018-08-12T16:29:29.915Z,28.80
2018-08-12T16:31:58.113Z,28.90
2018-08-12T16:34:26.303Z,29.00
2018-08-12T16:36:54.478Z,29.10
2018-08-12T16:39:22.740Z,29.30
2018-08-12T16:41:51.111Z,29.20
2018-08-12T16:44:19.379Z,29.30
2018-08-12T16:46:47.612Z,29.30
2018-08-12T16:49:15.863Z,29.40
2018-08-12T16:51:44.852Z,29.40
2018-08-12T16:54:13.009Z,30.00
2018-08-12T16:56:41.872Z,30.20
2018-08-12T16:59:10.337Z,29.60
2018-08-12T17:01:39.808Z,29.60
2018-08-12T17:04:07.993Z,29.90
2018-08-12T17:06:36.736Z,29.50
2018-08-12T17:09:08.715Z,29.80
2018-08-12T17:11:38.240Z,29.50
2018-08-12T17:14:08.495Z,29.70
2018-08-12T17:16:37.002Z,29.60
2018-08-12T17:19:05.573Z,29.10
2018-08-12T17:21:33.862Z,29.70
2018-08-12T17:24:02.078Z,29.70
2018-08-12T17:26:30.218Z,29.70
2018-08-12T17:28:58.504Z,29.90
2018-08-12T17:31:26.976Z,29.50
2018-08-12T17:33:55.985Z,30.00
2018-08-12T17:36:24.362Z,30.30
2018-08-12T17:38:52.819Z,30.10
2018-08-12T17:41:20.945Z,30.10
2018-08-12T17:43:49.322Z,30.90
2018-08-12T17:46:17.790Z,31.30
2018-08-12T17:48:46.078Z,31.10
2018-08-12T17:51:14.406Z,31.20
2018-08-12T17:53:42.694Z,31.80
2018-08-12T17:56:11.304Z,32.00
2018-08-12T17:58:39.614Z,31.90
2018-08-12T18:01:08.053Z,32.30
2018-08-12T18:03:36.370Z,32.50
2018-08-12T18:06:04.650Z,32.70
2018-08-12T18:08:32.886Z,32.80
2018-08-12T18:11:01.186Z,33.20
2018-08-12T18:13:29.412Z,33.30
2018-08-12T18:15:58.431Z,33.50
2018-08-12T18:18:26.729Z,33.70
2018-08-12T18:20:55.178Z,34.20
2018-08-12T18:23:23.357Z,34.40
2018-08-12T18:25:51.534Z,34.60
2018-08-12T18:28:19.729Z,34.70
2018-08-12T18:30:47.998Z,34.60
2018-08-12T18:33:16.197Z,35.00
2018-08-12T18:35:44.450Z,35.30
2018-08-12T18:38:12.726Z,35.80
2018-08-12T18:40:41.076Z,36.00
2018-08-12T18:43:09.276Z,36.20
2018-08-12T18:45:37.531Z,36.30
2018-08-12T18:48:05.968Z,36.60
2018-08-12T18:50:34.195Z,36.60
2018-08-12T18:53:02.442Z,36.70
2018-08-12T18:55:30.723Z,37.10
2018-08-12T18:57:58.937Z,37.30
2018-08-12T19:00:27.138Z,36.90
2018-08-12T19:02:55.284Z,37.10
2018-08-12T19:05:23.562Z,37.40
2018-08-12T19:07:51.793Z,37.60
2018-08-12T19:10:20.224Z,37.80
2018-08-12T19:12:48.758Z,38.00
2018-08-12T19:15:16.968Z,38.30
2018-08-12T19:17:45.155Z,38.30
2018-08-12T19:20:13.306Z,38.10
2018-08-12T19:22:41.515Z,38.10
2018-08-12T19:25:10.182Z,38.30
2018-08-12T19:27:38.338Z,37.60
2018-08-12T19:30:08.867Z,37.80
2018-08-12T19:32:38.699Z,38.60
2018-08-12T19:35:06.888Z,38.40
2018-08-12T19:37:35.141Z,38.60
2018-08-12T19:40:03.350Z,38.90
2018-08-12T19:42:31.581Z,38.90
2018-08-12T19:44:59.720Z,38.90
2018-08-12T19:47:28.071Z,39.20
2018-08-12T19:49:56.264Z,39.50
2018-08-12T19:52:24.476Z,39.70
2018-08-12T19:54:52.674Z,39.60
2018-08-12T19:57:21.010Z,39.70
2018-08-12T19:59:49.358Z,40.00
2018-08-12T20:02:17.502Z,40.20
2018-08-12T20:04:45.878Z,40.60
2018-08-12T20:07:14.113Z,40.90
2018-08-12T20:09:42.290Z,41.40
2018-08-12T20:12:10.682Z,41.40
2018-08-12T20:14:38.904Z,41.60
2018-08-12T20:17:07.153Z,41.30
2018-08-12T20:19:35.329Z,41.30
2018-08-12T20:22:04.040Z,41.70
2018-08-12T20:24:32.371Z,42.00
2018-08-12T20:27:00.859Z,42.10
2018-08-12T20:29:29.077Z,42.10
2018-08-12T20:31:57.239Z,42.20
2018-08-12T20:34:25.540Z,42.20
2018-08-12T20:36:53.697Z,42.40
2018-08-12T20:39:21.894Z,43.20
2018-08-12T20:41:50.262Z,42.70
2018-08-12T20:44:18.478Z,42.80
2018-08-12T20:46:46.777Z,42.90
2018-08-12T20:49:14.883Z,43.10
2018-08-12T20:51:43.199Z,43.10
2018-08-12T20:54:11.550Z,43.50
2018-08-12T20:56:39.733Z,43.40
2018-08-12T20:59:07.972Z,43.80
2018-08-12T21:01:36.131Z,43.90
2018-08-12T21:04:04.344Z,44.10
2018-08-12T21:06:32.554Z,44.20
2018-08-12T21:09:00.879Z,44.30
2018-08-12T21:11:29.147Z,44.60
2018-08-12T21:13:57.404Z,44.80
2018-08-12T21:16:25.624Z,45.10
2018-08-12T21:18:53.922Z,45.20
2018-08-12T21:21:22.113Z,45.80
2018-08-12T21:23:50.449Z,45.30
2018-08-12T21:26:18.782Z,45.30
2018-08-12T21:28:47.173Z,45.30
2018-08-12T21:31:15.442Z,45.40
2018-08-12T21:33:43.760Z,45.60
2018-08-12T21:36:12.032Z,45.80
2018-08-12T21:38:40.221Z,45.90
2018-08-12T21:41:08.357Z,46.20
2018-08-12T21:43:36.496Z,46.50
2018-08-12T21:46:04.705Z,46.80
2018-08-12T21:48:32.852Z,47.20
2018-08-12T21:51:00.983Z,47.60
2018-08-12T21:53:30.340Z,47.70
2018-08-12T21:55:58.559Z,48.00
2018-08-12T21:58:26.877Z,48.40
2018-08-12T22:00:55.390Z,48.60
2018-08-12T22:03:23.597Z,49.00
2018-08-12T22:05:52.426Z,49.40
2018-08-12T22:08:21.143Z,49.50
2018-08-12T22:10:49.349Z,50.00
2018-08-12T22:13:17.485Z,50.40
2018-08-12T22:15:45.654Z,50.60
2018-08-12T22:18:14.009Z,50.90
2018-08-12T22:20:42.478Z,51.10
2018-08-12T22:23:10.700Z,51.60
2018-08-12T22:25:38.843Z,51.90
2018-08-12T22:28:07.192Z,52.10
2018-08-12T22:30:35.317Z,52.60
2018-08-12T22:33:03.482Z,52.90
2018-08-12T22:35:32.727Z,53.20
2018-08-12T22:38:00.940Z,53.40
2018-08-12T22:40:29.072Z,54.00
2018-08-12T22:42:57.207Z,53.90
2018-08-12T22:45:25.386Z,54.00
2018-08-12T22:47:53.578Z,54.20
2018-08-12T22:50:21.801Z,53.90
2018-08-12T22:52:50.084Z,54.20
2018-08-12T22:55:18.337Z,54.20
2018-08-12T22:57:46.557Z,53.90
2018-08-12T23:00:17.261Z,53.90
2018-08-12T23:02:45.579Z,53.70
2018-08-12T23:05:13.915Z,53.50
2018-08-12T23:07:42.089Z,53.40
2018-08-12T23:10:10.331Z,53.20
2018-08-12T23:12:38.645Z,53.10
2018-08-12T23:16:23.547Z,52.90
2018-08-12T23:18:51.681Z,52.90
2018-08-12T23:21:20.303Z,53.00
2018-08-12T23:23:49.537Z,53.90
2018-08-12T23:26:19.005Z,53.80
2018-08-12T23:28:47.501Z,54.00
2018-08-12T23:31:16.857Z,54.30
2018-08-12T23:33:44.998Z,54.50
2018-08-12T23:36:13.254Z,55.00
2018-08-12T23:38:41.485Z,55.40
2018-08-12T23:41:11.471Z,55.70
2018-08-12T23:43:39.617Z,55.90
2018-08-12T23:46:09.178Z,56.20
2018-08-12T23:48:37.322Z,56.90
2018-08-12T23:51:05.468Z,56.70
2018-08-12T23:53:33.839Z,56.90
2018-08-12T23:56:02.077Z,57.10
2018-08-12T23:58:30.840Z,57.50
